createdAt,value
2022-10-03T00:01:55.375Z,101034.13
2022-10-03T00:04:45.379Z,101029.13
2022-10-03T00:07:30.602Z,101022.13
2022-10-03T00:10:48.584Z,101020.94
2022-10-03T00:13:25.643Z,101014.06
2022-10-03T00:16:12.813Z,101010.56
2022-10-03T00:19:01.506Z,101011.59
2022-10-03T00:21:37.565Z,101020.75
2022-10-03T00:24:19.592Z,101020.81
2022-10-03T00:27:00.588Z,101016.59
2022-10-03T00:29:36.772Z,101023.28
2022-10-03T00:32:26.400Z,101020.22
2022-10-03T00:35:07.338Z,101014.13
2022-10-03T00:37:41.378Z,101017.00
2022-10-03T00:40:31.214Z,101015.31
2022-10-03T00:43:28.155Z,101006.84
2022-10-03T00:46:13.246Z,101011.56
2022-10-03T00:48:42.695Z,101020.34
2022-10-03T00:51:19.859Z,101012.78
2022-10-03T00:54:08.835Z,101021.91
2022-10-03T00:56:44.292Z,101025.28
2022-10-03T01:00:07.966Z,101026.97
2022-10-03T01:03:11.430Z,101024.84
2022-10-03T01:05:49.713Z,101029.91
2022-10-03T01:08:34.931Z,101024.63
2022-10-03T01:11:23.377Z,101029.25
2022-10-03T01:13:56.115Z,101038.91
2022-10-03T01:16:41.009Z,101037.88
2022-10-03T01:19:27.064Z,101033.72
2022-10-03T01:22:25.385Z,101034.69
2022-10-03T01:25:13.266Z,101035.72
2022-10-03T01:28:03.056Z,101032.34
2022-10-03T01:30:43.541Z,101049.34
2022-10-03T01:33:31.380Z,101032.25
2022-10-03T01:36:13.216Z,101041.47
2022-10-03T01:38:54.801Z,101045.03
2022-10-03T01:41:50.550Z,101049.75
2022-10-03T01:44:46.121Z,101042.03
2022-10-03T01:47:35.123Z,101047.75
2022-10-03T01:50:32.105Z,101052.72
2022-10-03T01:53:17.630Z,101047.13
2022-10-03T01:56:11.750Z,101044.44
2022-10-03T01:59:02.478Z,101042.56
2022-10-03T02:01:51.553Z,101042.88
2022-10-03T02:04:28.109Z,101039.84
2022-10-03T02:07:23.327Z,101043.09
2022-10-03T02:10:19.815Z,101037.38
2022-10-03T02:12:58.594Z,101033.03
2022-10-03T02:15:43.539Z,101030.19
2022-10-03T02:18:22.827Z,101035.81
2022-10-03T02:21:05.726Z,101024.28
2022-10-03T02:23:32.834Z,101025.06
2022-10-03T02:26:37.405Z,101030.19
2022-10-03T02:29:31.896Z,101028.22
2022-10-03T02:32:17.260Z,101035.72
2022-10-03T02:35:02.292Z,101033.34
2022-10-03T02:38:06.624Z,101031.16
2022-10-03T02:40:57.141Z,101022.59
2022-10-03T02:44:03.932Z,101026.34
2022-10-03T02:47:19.311Z,101018.53
2022-10-03T02:50:10.858Z,101027.47
2022-10-03T02:52:37.780Z,101030.63
2022-10-03T02:55:43.993Z,101014.69
2022-10-03T02:58:44.591Z,101019.88
2022-10-03T03:01:30.016Z,101020.44
2022-10-03T03:04:18.662Z,101003.03
2022-10-03T03:07:00.694Z,100999.28
2022-10-03T03:09:45.921Z,100986.69
2022-10-03T03:12:18.606Z,100989.22
2022-10-03T03:15:23.130Z,100996.09
2022-10-03T03:18:10.266Z,100992.81
2022-10-03T03:20:43.002Z,100989.66
2022-10-03T03:23:44.967Z,100993.06
2022-10-03T03:26:17.686Z,100990.97
2022-10-03T03:28:59.521Z,100987.75
2022-10-03T03:31:55.120Z,100990.81
2022-10-03T03:34:26.927Z,100992.59
2022-10-03T03:37:05.169Z,100999.66
2022-10-03T03:40:10.214Z,100998.88
2022-10-03T03:42:52.082Z,101000.56
2022-10-03T03:45:20.983Z,101002.25
2022-10-03T03:48:05.921Z,101004.59
2022-10-03T03:50:57.466Z,101002.66
2022-10-03T03:53:58.425Z,100999.81
2022-10-03T03:56:42.025Z,100998.34
2022-10-03T03:59:27.917Z,101002.78
2022-10-03T04:02:13.326Z,101000.78
2022-10-03T04:04:43.287Z,100999.53
2022-10-03T04:07:27.562Z,100991.75
2022-10-03T04:10:06.524Z,100994.28
2022-10-03T04:12:58.355Z,100992.97
2022-10-03T04:15:40.324Z,100990.47
2022-10-03T04:18:35.146Z,100985.44
2022-10-03T04:21:05.065Z,100983.38
2022-10-03T04:23:31.725Z,100987.31
2022-10-03T04:26:21.605Z,100986.72
2022-10-03T04:29:14.685Z,100986.16
2022-10-03T04:31:50.141Z,100986.59
2022-10-03T04:34:33.973Z,100978.63
2022-10-03T04:37:32.369Z,100979.59
2022-10-03T04:40:24.506Z,100979.69
2022-10-03T04:43:10.028Z,100981.34
2022-10-03T04:45:37.861Z,100973.63
2022-10-03T04:48:23.444Z,100976.78
2022-10-03T04:51:03.227Z,100971.75
2022-10-03T04:53:49.122Z,100974.41
2022-10-03T04:56:37.718Z,100971.03
2022-10-03T04:59:20.443Z,100979.25
2022-10-03T05:02:03.403Z,100981.16
2022-10-03T05:04:43.726Z,100978.63
2022-10-03T05:07:21.777Z,100980.34
2022-10-03T05:10:04.518Z,100976.59
2022-10-03T05:12:41.741Z,100971.53
2022-10-03T05:15:11.774Z,100962.91
2022-10-03T05:18:15.922Z,100964.19
2022-10-03T05:21:09.530Z,100965.63
2022-10-03T05:24:11.232Z,100954.97
2022-10-03T05:26:45.117Z,100963.56
2022-10-03T05:29:45.681Z,100967.13
2022-10-03T05:32:37.069Z,100969.50
2022-10-03T05:35:17.837Z,100965.13
2022-10-03T05:38:27.005Z,100972.09
2022-10-03T05:40:59.453Z,100964.06
2022-10-03T05:43:47.940Z,100955.63
2022-10-03T05:46:39.026Z,100966.53
2022-10-03T05:49:19.431Z,100973.03
2022-10-03T05:52:00.446Z,100966.56
2022-10-03T05:54:37.740Z,100962.63
2022-10-03T05:57:41.747Z,100962.38
2022-10-03T06:00:57.333Z,100959.47
2022-10-03T06:03:41.613Z,100961.59
2022-10-03T06:06:21.013Z,100962.06
2022-10-03T06:09:23.182Z,100959.34
2022-10-03T06:12:21.015Z,100962.22
2022-10-03T06:15:04.927Z,100954.47
2022-10-03T06:17:43.190Z,100955.13
2022-10-03T06:20:48.059Z,100960.38
2022-10-03T06:23:17.924Z,100966.91
2022-10-03T06:26:00.661Z,100968.44
2022-10-03T06:28:34.340Z,100973.91
2022-10-03T06:31:11.557Z,100961.16
2022-10-03T06:33:58.090Z,100956.53
2022-10-03T06:36:43.545Z,100946.22
2022-10-03T06:39:58.704Z,100939.09
2022-10-03T06:42:53.082Z,100931.75
2022-10-03T06:45:50.885Z,100928.41
2022-10-03T06:48:18.194Z,100925.31
2022-10-03T06:51:16.471Z,100924.50
2022-10-03T06:53:55.821Z,100924.97
2022-10-03T06:56:49.089Z,100915.75
2022-10-03T06:59:36.957Z,100914.97
2022-10-03T07:02:25.561Z,100912.84
2022-10-03T07:05:39.999Z,100927.38
2022-10-03T07:08:36.401Z,100913.94
2022-10-03T07:11:28.821Z,100917.13
2022-10-03T07:14:48.874Z,100910.38
2022-10-03T07:20:32.175Z,100924.06
2022-10-03T07:23:08.353Z,100935.63
2022-10-03T07:25:59.935Z,100936.06
2022-10-03T07:29:07.892Z,100930.63
2022-10-03T07:31:53.500Z,100930.44
2022-10-03T07:34:42.054Z,100928.97
2022-10-03T07:37:59.197Z,100935.69
2022-10-03T07:40:54.822Z,100933.16
2022-10-03T07:43:32.393Z,100929.00
2022-10-03T07:46:30.702Z,100931.91
2022-10-03T07:49:27.752Z,100929.41
2022-10-03T07:52:16.182Z,100924.34
2022-10-03T07:55:01.039Z,100929.38
2022-10-03T07:58:15.803Z,100925.59
2022-10-03T08:00:52.658Z,100930.22
2022-10-03T08:03:22.591Z,100931.69
2022-10-03T08:06:16.400Z,100936.09
2022-10-03T08:08:54.980Z,100933.97
2022-10-03T08:12:03.109Z,100945.31
2022-10-03T08:14:59.436Z,100942.94
2022-10-03T08:17:42.346Z,100943.53
2022-10-03T08:20:18.033Z,100939.50
2022-10-03T08:22:54.031Z,100943.66
2022-10-03T08:25:38.682Z,100940.03
2022-10-03T08:28:23.691Z,100934.03
2022-10-03T08:34:36.504Z,100932.31
2022-10-03T08:37:44.183Z,100930.75
2022-10-03T08:40:14.312Z,100941.81
2022-10-03T08:43:05.991Z,100934.41
2022-10-03T08:45:54.776Z,100943.13
2022-10-03T08:48:45.985Z,100943.78
2022-10-03T08:51:23.011Z,100939.38
2022-10-03T08:54:22.335Z,100940.91
2022-10-03T08:57:09.127Z,100953.88
2022-10-03T09:00:12.939Z,100940.91
2022-10-03T09:03:31.411Z,100937.84
2022-10-03T09:06:24.455Z,100943.00
2022-10-03T09:09:36.266Z,100932.19
2022-10-03T09:12:15.498Z,100932.31
2022-10-03T09:15:14.492Z,100926.72
2022-10-03T09:18:06.996Z,100924.50
2022-10-03T09:21:21.961Z,100927.50
2022-10-03T09:23:54.458Z,100931.00
2022-10-03T09:26:45.862Z,100937.47
2022-10-03T09:29:24.895Z,100932.53
2022-10-03T09:32:29.020Z,100933.41
2022-10-03T09:35:01.695Z,100933.66
2022-10-03T09:38:15.925Z,100932.09
2022-10-03T09:44:26.109Z,100937.16
2022-10-03T09:47:22.949Z,100934.97
2022-10-03T09:50:21.915Z,100933.81
2022-10-03T09:53:24.987Z,100936.06
2022-10-03T09:56:22.533Z,100929.25
2022-10-03T09:59:26.384Z,100929.13
2022-10-03T10:11:11.790Z,100911.28
2022-10-03T10:14:07.908Z,100910.69
2022-10-03T10:17:13.025Z,100902.06
2022-10-03T10:19:56.021Z,100904.28
2022-10-03T10:22:54.874Z,100893.00
2022-10-03T10:25:29.212Z,100895.84
2022-10-03T10:28:17.679Z,100898.22
2022-10-03T10:31:05.549Z,100895.19
2022-10-03T10:37:40.692Z,100885.53
2022-10-03T10:40:46.692Z,100878.00
2022-10-03T10:46:55.226Z,100882.56
2022-10-03T10:49:38.630Z,100877.75
2022-10-03T10:52:24.012Z,100878.66
2022-10-03T10:55:25.956Z,100869.16
2022-10-03T10:58:20.688Z,100869.56
2022-10-03T11:04:12.068Z,100863.00
2022-10-03T11:07:12.186Z,100864.75
2022-10-03T11:10:00.504Z,100859.22
2022-10-03T11:13:02.201Z,100860.25
2022-10-03T11:15:47.709Z,100857.22
2022-10-03T11:18:30.415Z,100852.56
2022-10-03T11:21:31.342Z,100855.31
2022-10-03T11:24:21.177Z,100852.63
2022-10-03T11:27:07.520Z,100847.50
2022-10-03T11:30:00.998Z,100836.44
2022-10-03T11:32:30.680Z,100831.22
2022-10-03T11:35:00.060Z,100833.22
2022-10-03T11:37:33.242Z,100823.03
2022-10-03T11:40:55.185Z,100820.81
2022-10-03T11:47:48.448Z,100810.66
2022-10-03T11:51:03.512Z,100812.94
2022-10-03T11:54:26.334Z,100805.53
2022-10-03T11:57:11.813Z,100797.88
2022-10-03T12:00:52.254Z,100802.00
2022-10-03T12:03:27.294Z,100795.69
2022-10-03T12:06:18.348Z,100782.69
2022-10-03T12:12:57.083Z,100778.88
2022-10-03T12:15:48.612Z,100773.56
2022-10-03T12:18:34.711Z,100773.19
2022-10-03T12:21:23.311Z,100774.84
2022-10-03T12:24:01.970Z,100767.94
2022-10-03T12:27:17.043Z,100762.97
2022-10-03T12:36:26.336Z,100747.91
2022-10-03T12:39:24.762Z,100739.66
2022-10-03T12:42:42.399Z,100738.00
2022-10-03T12:45:35.645Z,100731.97
2022-10-03T12:48:13.727Z,100724.63
2022-10-03T12:57:19.980Z,100727.56
2022-10-03T13:00:16.261Z,100723.63
2022-10-03T13:03:25.182Z,100728.94
2022-10-03T13:06:44.609Z,100731.13
2022-10-03T13:09:55.622Z,100721.41
2022-10-03T13:12:35.196Z,100721.97
2022-10-03T13:15:40.750Z,100725.56
2022-10-03T13:18:42.902Z,100721.38
2022-10-03T13:21:46.791Z,100723.03
2022-10-03T13:24:48.634Z,100713.34
2022-10-03T13:27:52.980Z,100705.59
2022-10-03T13:30:24.995Z,100714.50
2022-10-03T13:33:32.840Z,100713.91
2022-10-03T13:36:44.804Z,100701.19
2022-10-03T13:39:44.411Z,100695.13
2022-10-03T13:42:20.886Z,100692.09
2022-10-03T13:44:57.575Z,100684.94
2022-10-03T13:47:51.859Z,100685.78
2022-10-03T13:50:42.371Z,100672.53
2022-10-03T13:53:24.712Z,100683.94
2022-10-03T13:55:58.477Z,100670.34
2022-10-03T13:58:55.655Z,100674.56
2022-10-03T14:01:35.054Z,100670.13
2022-10-03T14:04:20.295Z,100673.19
2022-10-03T14:06:55.452Z,100675.47
2022-10-03T14:09:31.537Z,100669.91
2022-10-03T14:12:07.728Z,100658.28
2022-10-03T14:14:43.335Z,100652.72
2022-10-03T14:17:39.272Z,100659.94
2022-10-03T14:20:15.291Z,100647.75
2022-10-03T14:22:44.932Z,100644.41
2022-10-03T14:25:14.651Z,100644.94
2022-10-03T14:27:47.807Z,100636.91
2022-10-03T14:31:04.469Z,100636.06
2022-10-03T14:33:39.917Z,100621.94
2022-10-03T14:36:35.641Z,100633.03
2022-10-03T14:39:36.410Z,100622.25
2022-10-03T14:42:26.948Z,100626.13
2022-10-03T14:45:00.803Z,100615.03
2022-10-03T14:47:35.956Z,100623.59
2022-10-03T14:50:03.694Z,100615.84
2022-10-03T14:52:37.227Z,100616.16
2022-10-03T14:55:16.946Z,100615.84
2022-10-03T14:58:39.488Z,100619.47
2022-10-03T15:01:20.631Z,100608.97
2022-10-03T15:07:01.007Z,100602.06
2022-10-03T15:09:40.214Z,100599.00
2022-10-03T15:12:15.641Z,100602.34
2022-10-03T15:14:46.932Z,100600.13
2022-10-03T15:17:22.992Z,100597.34
2022-10-03T15:19:55.542Z,100589.31
2022-10-03T15:22:51.722Z,100582.94
2022-10-03T15:25:42.915Z,100570.47
2022-10-03T15:28:42.986Z,100580.72
2022-10-03T15:31:41.858Z,100581.00
2022-10-03T15:34:23.217Z,100577.69
2022-10-03T15:36:56.133Z,100579.06
2022-10-03T15:39:30.973Z,100571.28
2022-10-03T15:42:09.869Z,100570.72
2022-10-03T15:45:06.760Z,100560.19
2022-10-03T15:47:37.896Z,100553.53
2022-10-03T15:50:20.127Z,100553.00
2022-10-03T15:53:36.025Z,100550.78
2022-10-03T15:56:13.623Z,100546.56
2022-10-03T15:59:28.798Z,100544.94
2022-10-03T16:01:57.257Z,100539.66
2022-10-03T16:04:46.333Z,100539.38
2022-10-03T16:07:57.509Z,100537.41
2022-10-03T16:10:27.766Z,100535.47
2022-10-03T16:13:06.205Z,100534.38
2022-10-03T16:15:59.399Z,100536.28
2022-10-03T16:21:52.563Z,100537.59
2022-10-03T16:25:00.504Z,100535.72
2022-10-03T16:27:31.764Z,100537.34
2022-10-03T16:30:10.569Z,100539.84
2022-10-03T16:32:46.133Z,100532.91
2022-10-03T16:35:29.264Z,100528.19
2022-10-03T16:37:56.687Z,100528.75
2022-10-03T16:40:26.884Z,100527.09
2022-10-03T16:42:58.984Z,100530.38
2022-10-03T16:45:32.996Z,100516.75
2022-10-03T16:48:28.671Z,100520.63
2022-10-03T16:50:58.029Z,100509.25
2022-10-03T16:53:34.548Z,100510.38
2022-10-03T16:56:10.484Z,100512.31
2022-10-03T16:58:47.408Z,100513.09
2022-10-03T17:01:28.108Z,100513.88
2022-10-03T17:04:00.090Z,100508.28
2022-10-03T17:06:34.300Z,100513.50
2022-10-03T17:09:15.342Z,100502.38
2022-10-03T17:11:50.646Z,100495.97
2022-10-03T17:14:20.370Z,100489.84
2022-10-03T17:16:55.825Z,100499.47
2022-10-03T17:19:37.697Z,100503.53
2022-10-03T17:22:31.276Z,100490.19
2022-10-03T17:25:42.329Z,100491.78
2022-10-03T17:28:16.160Z,100489.53
2022-10-03T17:30:52.669Z,100479.81
2022-10-03T17:33:38.358Z,100480.03
2022-10-03T17:36:14.228Z,100484.88
2022-10-03T17:39:33.378Z,100480.94
2022-10-03T17:42:12.955Z,100482.22
2022-10-03T17:44:57.680Z,100483.25
2022-10-03T17:47:33.131Z,100473.16
2022-10-03T17:50:05.660Z,100474.72
2022-10-03T17:52:33.880Z,100470.25
2022-10-03T17:55:04.209Z,100466.78
2022-10-03T17:57:37.614Z,100478.28
2022-10-03T18:00:30.717Z,100468.22
2022-10-03T18:03:13.997Z,100483.28
2022-10-03T18:05:46.215Z,100485.28
2022-10-03T18:08:53.242Z,100470.03
2022-10-03T18:11:24.806Z,100473.50
2022-10-03T18:14:13.324Z,100468.41
2022-10-03T18:16:54.844Z,100468.84
2022-10-03T18:19:33.668Z,100473.19
2022-10-03T18:22:16.387Z,100470.00
2022-10-03T18:25:36.151Z,100461.34
2022-10-03T18:28:24.809Z,100462.84
2022-10-03T18:31:07.017Z,100458.38
2022-10-03T18:33:40.316Z,100461.53
2022-10-03T18:36:22.705Z,100461.94
2022-10-03T18:38:54.170Z,100469.53
2022-10-03T18:41:21.721Z,100455.63
2022-10-03T18:44:00.259Z,100451.16
2022-10-03T18:46:35.904Z,100442.09
2022-10-03T18:49:34.933Z,100441.25
2022-10-03T18:52:13.820Z,100443.09
2022-10-03T18:55:00.412Z,100443.50
2022-10-03T18:58:05.910Z,100442.66
2022-10-03T19:00:42.435Z,100448.66
2022-10-03T19:03:15.635Z,100441.56
2022-10-03T19:05:59.084Z,100427.00
2022-10-03T19:08:38.596Z,100423.50
2022-10-03T19:11:16.640Z,100423.50
2022-10-03T19:14:00.316Z,100420.47
2022-10-03T19:16:29.914Z,100423.41
2022-10-03T19:19:09.755Z,100427.00
2022-10-03T19:21:40.232Z,100420.66
2022-10-03T19:24:34.653Z,100423.41
2022-10-03T19:27:14.668Z,100412.06
2022-10-03T19:29:46.853Z,100427.25
2022-10-03T19:32:27.008Z,100426.66
2022-10-03T19:34:58.444Z,100431.56
2022-10-03T19:37:31.391Z,100429.66
2022-10-03T19:39:59.027Z,100429.41
2022-10-03T19:42:40.337Z,100430.47
2022-10-03T19:45:13.336Z,100432.06
2022-10-03T19:47:48.726Z,100442.31
2022-10-03T19:50:21.394Z,100424.97
2022-10-03T19:52:51.823Z,100429.16
2022-10-03T19:55:24.674Z,100421.75
2022-10-03T19:57:58.834Z,100410.13
2022-10-03T20:00:31.550Z,100400.56
2022-10-03T20:03:10.947Z,100397.34
2022-10-03T20:05:49.929Z,100392.75
2022-10-03T20:08:40.079Z,100383.97
2022-10-03T20:11:15.783Z,100390.06
2022-10-03T20:13:48.017Z,100385.88
2022-10-03T20:16:17.887Z,100388.41
2022-10-03T20:18:50.472Z,100385.41
2022-10-03T20:21:22.196Z,100376.41
2022-10-03T20:23:49.624Z,100389.13
2022-10-03T20:26:32.026Z,100384.03
2022-10-03T20:29:01.835Z,100381.13
2022-10-03T20:31:30.949Z,100384.53
2022-10-03T20:34:03.144Z,100371.69
2022-10-03T20:36:35.165Z,100371.78
2022-10-03T20:39:18.387Z,100359.72
2022-10-03T20:42:11.643Z,100348.00
2022-10-03T20:45:01.504Z,100352.25
2022-10-03T20:47:43.532Z,100339.09
2022-10-03T20:50:34.651Z,100343.34
2022-10-03T20:53:04.513Z,100336.81
2022-10-03T20:55:37.754Z,100335.78
2022-10-03T20:58:18.321Z,100333.88
2022-10-03T21:00:53.911Z,100322.50
2022-10-03T21:04:05.818Z,100321.38
2022-10-03T21:06:45.611Z,100328.47
2022-10-03T21:09:20.728Z,100329.00
2022-10-03T21:11:54.438Z,100328.34
2022-10-03T21:14:26.795Z,100309.06
2022-10-03T21:16:55.348Z,100318.63
2022-10-03T21:19:29.749Z,100315.28
2022-10-03T21:22:01.655Z,100312.28
2022-10-03T21:24:37.284Z,100305.06
2022-10-03T21:27:13.362Z,100306.97
2022-10-03T21:29:51.837Z,100304.44
2022-10-03T21:32:46.031Z,100296.41
2022-10-03T21:35:27.588Z,100296.13
2022-10-03T21:38:27.512Z,100299.16
2022-10-03T21:41:18.597Z,100295.97
2022-10-03T21:43:58.328Z,100289.75
2022-10-03T21:46:43.302Z,100288.69
2022-10-03T21:49:28.307Z,100296.19
2022-10-03T21:52:17.718Z,100281.91
2022-10-03T21:55:52.322Z,100300.75
2022-10-03T21:59:31.535Z,100304.09
2022-10-03T22:02:27.825Z,100296.16
2022-10-03T22:05:14.678Z,100294.84
2022-10-03T22:07:47.890Z,100295.13
2022-10-03T22:10:32.020Z,100281.97
2022-10-03T22:13:10.664Z,100286.38
2022-10-03T22:16:09.178Z,100278.69
2022-10-03T22:19:03.490Z,100287.53
2022-10-03T22:21:41.921Z,100273.47
2022-10-03T22:24:30.038Z,100275.16
2022-10-03T22:30:18.636Z,100265.78
2022-10-03T22:32:54.447Z,100256.41
2022-10-03T22:35:51.152Z,100256.69
2022-10-03T22:38:20.175Z,100257.47
2022-10-03T22:40:49.404Z,100236.56
2022-10-03T22:43:16.478Z,100232.72
2022-10-03T22:45:48.822Z,100234.38
2022-10-03T22:48:22.553Z,100227.19
2022-10-03T22:50:50.515Z,100235.47
2022-10-03T22:53:21.947Z,100239.06
2022-10-03T22:55:56.049Z,100242.38
2022-10-03T22:58:24.757Z,100236.84
2022-10-03T23:00:54.547Z,100238.53
2022-10-03T23:03:29.717Z,100232.75
2022-10-03T23:06:23.162Z,100236.34
2022-10-03T23:09:21.187Z,100236.94
2022-10-03T23:11:50.328Z,100235.50
2022-10-03T23:14:27.356Z,100226.97
2022-10-03T23:17:21.780Z,100236.94
2022-10-03T23:20:37.385Z,100244.91
2022-10-03T23:23:17.387Z,100230.31
2022-10-03T23:26:13.809Z,100224.22
2022-10-03T23:28:49.245Z,100212.63
2022-10-03T23:31:48.476Z,100213.16
2022-10-03T23:34:36.842Z,100194.94
2022-10-03T23:37:15.668Z,100182.78
2022-10-03T23:40:21.500Z,100174.47
2022-10-03T23:43:02.102Z,100177.16
2022-10-03T23:45:29.756Z,100176.34
2022-10-03T23:48:17.340Z,100174.38
2022-10-03T23:50:49.328Z,100179.88
2022-10-03T23:53:40.120Z,100178.47
2022-10-03T23:56:26.467Z,100177.34
2022-10-03T23:59:08.208Z,100174.88
